메인 페이지
METAR-TAF:

METAR-TAF

공항 :

오클라호마시티, 오클라호마, 미국

위도: 35-23-19N, 경도: 097-36-01W, 고도: 394m

현재 날씨관측

예보는 34분 전, 18:52시(UTC)에 발표되었습니다.
남남동11kt
온도 23°C
습도 27%
기압 1013 hPa
시정: 16.1km
고도 25000ft 상공 구름 조금

METAR: KOKC 191852Z 15011KT 10SM FEW250 23/03 A2990 RMK AO2 SLP119 T02280028

시각: 13:26 (19:26 UTC)

예보

예보는 2 시간 4분 전, 17:22시(UTC)에 발표되었습니다.
예보 대상 시간: 19일 18시부터 20일 18시까지 (UTC)
남남동12kt
시정: 10km
고도 25000ft 상공 구름 보통
20일 0400시부터 (UTC)
남남동15kt
시정: 10km
고도 25000ft 상공 구름 많음
20일 1300시부터 (UTC)
15kt, 순간 최대 풍속 25kt
시정: 8.0km
고도 1200ft 상공 흐림
박무

TAF: KOKC 191722Z 1918/2018 15012KT P6SM SCT250 FM200400 16015KT P6SM BKN250 WS015/18040KT FM201300 17015G25KT 5SM BR OVC012

4,000개 이상의 공항 관측 자료 및 예보 (METAR 및 TAF 보고).

지도상에서 검색 가능한 기상관측소가 노란 점과 빨간 점으로 표시되어 있습니다.

기상관측소 명을 보려면 표시 위로 마우스를 이동하세요.

날씨 관측과 예보를 보려면 클릭하세요.

지도 변경 : 확대하려면 엑스 표시가 있는 녹색 버튼, 축소하려면 빼기 표시가 있는 녹색 버튼, 다음 페이지의 지도를 보려면 녹색 화살표를 클릭하세요.


METAR-TAF: